• Join FlightAware (Why Join?)
  • Login
  • US Flag 
Gobble Gobble! 
10:07PM EST


 

Airport Tracker/Info


-or-


 

Live Flight TrackerFlight Track Log ✈ N45N ✈ 19-Dec-2013 ✈ KNUQ - KRDD

Flight Track Log - Related Links

Times and Time Zones

All times are in EST time to prevent confusion due to time zone crossing. See the N45N flight status page for this flight to view local times or setup timezone preferences in your user account.

Time Position Orientation Groundspeed Altitude Reporting Facility
EST Latitude Longitude Course Direction KTS MPH feet Rate Location/Type
11:41AM 37.4500 -122.0333 15° North 160 184 1,600  Level Northern Cal TRACON
11:42AM 37.4500 -121.9833 90° East 152 175 3,100 1,380 Climbing Northern Cal TRACON
11:43AM 37.4500 -121.9333 90° East 145 167 4,300 900 Climbing Northern Cal TRACON
11:44AM 37.4667 -121.8833 67° East 148 170 5,000 360 Climbing Northern Cal TRACON
11:45AM 37.5167 -121.8667 15° North 156 180 5,100 360 Climbing Northern Cal TRACON
11:46AM 37.6731 -122.0686 North  Level Estimated
11:46AM 37.5500 -121.8500 22° Northeast 153 176 5,800  Level Northern Cal TRACON
11:47AM 37.7245 -122.0726 15° North  Level Estimated
11:47AM 37.5833 -121.8167 38° Northeast 140 161 7,000  Level Northern Cal TRACON
11:48AM 37.6167 -121.8000 22° Northeast 144 166 8,200 1,140 Climbing Northern Cal TRACON
11:49AM 37.6667 -121.8167 345° North 156 180 9,300 1,080 Climbing Northern Cal TRACON
11:50AM 37.7167 -121.8167 360° North 153 176 10,600 1,140 Climbing Northern Cal TRACON
11:51AM 37.7500 -121.8333 338° Northwest 153 176 11,800 1,020 Climbing Northern Cal TRACON
11:52AM 37.8000 -121.8333 360° North 160 184 12,700 1,140 Climbing Northern Cal TRACON
11:53AM 37.8500 -121.8333 360° North 163 188 14,100 1,080 Climbing Northern Cal TRACON
11:55AM 37.9122 -121.8519 347° North 167 192 15,600 900 Climbing Oakland Center
11:56AM 37.9600 -121.8606 352° North 172 198 16,600 1,020 Climbing Oakland Center
11:57AM 38.0081 -121.8675 354° North 166 191 17,700 840 Climbing Oakland Center
11:58AM 38.0489 -121.8750 352° North 160 184 18,400 660 Climbing Oakland Center
11:59AM 38.0931 -121.8828 352° North 161 185 19,100 600 Climbing Oakland Center
12:00PM 38.1492 -121.8917 353° North 168 193 19,700 420 Climbing Oakland Center
12:01PM 38.1967 -121.8986 353° North 171 197 20,000 120 Climbing Oakland Center
12:02PM 38.2492 -121.9064 353° North 187 215 20,000  Level Oakland Center
12:03PM 38.3006 -121.9139 353° North 187 215 20,000  Level Oakland Center
12:04PM 38.3506 -121.9239 351° North 185 213 20,000  Level Oakland Center
12:05PM 38.4014 -121.9328 352° North 186 214 20,000  Level Oakland Center
12:06PM 38.4514 -121.9394 354° North 183 211 20,000  Level Oakland Center
12:07PM 38.5025 -121.9492 352° North 184 212 20,000  Level Oakland Center
12:08PM 38.5589 -121.9717 343° North 182 209 20,000  Level Oakland Center
12:09PM 38.6031 -122.0081 327° Northwest 188 216 20,000  Level Oakland Center
12:10PM 38.6483 -122.0414 330° Northwest 188 216 20,000  Level Oakland Center
12:11PM 38.6922 -122.0767 328° Northwest 183 211 20,000  Level Oakland Center
12:12PM 38.7344 -122.1125 326° Northwest 181 208 20,000  Level Oakland Center
12:13PM 38.7742 -122.1475 326° Northwest 175 201 20,000  Level Oakland Center
12:14PM 38.8150 -122.1814 327° Northwest 174 200 20,000  Level Oakland Center
12:15PM 38.8578 -122.1944 347° North 163 188 20,000  Level Oakland Center
12:16PM 38.9031 -122.1978 357° North 162 186 20,000  Level Oakland Center
12:17PM 38.9475 -122.1994 358° North 161 185 20,000  Level Oakland Center
12:18PM 38.9981 -122.1783 18° North 160 184 20,000  Level Oakland Center
12:20PM 39.0397 -122.1617 17° North 157 181 20,000  Level Oakland Center
12:21PM 39.0817 -122.1458 16° North 158 182 20,000  Level Oakland Center
12:22PM 39.1231 -122.1314 15° North 155 178 20,000  Level Oakland Center
12:23PM 39.1647 -122.1158 16° North 156 180 20,000  Level Oakland Center
12:24PM 39.2061 -122.1000 17° North 156 180 20,000  Level Oakland Center
12:25PM 39.2467 -122.0831 18° North 154 177 20,000  Level Oakland Center
12:26PM 39.2883 -122.0669 17° North 157 181 20,000  Level Oakland Center
12:27PM 39.3292 -122.0536 14° North 153 176 20,000  Level Oakland Center
12:28PM 39.3767 -122.0325 19° North 151 174 20,000  Level Oakland Center
12:29PM 39.4167 -122.0167 17° North 150 173 20,000  Level Oakland Center
12:30PM 39.4572 -122.0047 13° North 150 173 20,000  Level Oakland Center
12:31PM 39.4944 -121.9872 20° North 149 171 20,000  Level Oakland Center
12:32PM 39.5342 -121.9714 17° North 150 173 20,000  Level Oakland Center
12:33PM 39.5725 -121.9572 16° North 144 166 20,000  Level Oakland Center
12:34PM 39.6108 -121.9417 17° North 144 166 20,000  Level Oakland Center
12:35PM 39.6494 -121.9258 18° North 146 168 20,000  Level Oakland Center
12:36PM 39.6950 -121.9067 18° North 145 167 20,000  Level Oakland Center
12:37PM 39.7333 -121.8908 18° North 146 168 20,000  Level Oakland Center
12:38PM 39.7728 -121.8744 18° North 148 170 20,000  Level Oakland Center
12:39PM 39.8094 -121.8608 16° North 140 161 20,000  Level Oakland Center
12:40PM 39.8478 -121.8469 16° North 142 163 20,000  Level Oakland Center
12:41PM 39.8872 -121.8319 16° North 147 169 20,000  Level Oakland Center
12:42PM 39.9258 -121.8183 15° North 144 166 20,000  Level Oakland Center
12:43PM 39.9725 -121.8031 14° North 144 166 20,000  Level Oakland Center
12:44PM 40.0108 -121.7853 20° North 146 168 20,000  Level Oakland Center
12:45PM 40.0489 -121.7708 16° North 142 163 20,000  Level Oakland Center
12:46PM 40.0867 -121.7586 14° North 141 162 20,000  Level Oakland Center
12:47PM 40.1236 -121.7433 18° North 140 161 20,000  Level Oakland Center
12:48PM 40.1614 -121.7289 16° North 142 163 20,000  Level Oakland Center
12:49PM 40.1978 -121.7133 18° North 137 158 20,000  Level Oakland Center
12:50PM 40.2333 -121.7011 15° North 133 153 20,000  Level Oakland Center
12:51PM 40.2761 -121.6825 18° North 135 155 20,000  Level Oakland Center
12:52PM 40.3125 -121.6661 19° North 139 160 20,000  Level Oakland Center
12:53PM 40.3475 -121.6464 23° Northeast 137 158 20,000  Level Oakland Center
12:54PM 40.3833 -121.6319 17° North 134 154 20,000  Level Oakland Center
12:55PM 40.4181 -121.6175 18° North 132 152 20,000  Level Oakland Center
12:56PM 40.4542 -121.5989 21° North 138 159 20,000  Level Oakland Center
12:57PM 40.4942 -121.5725 27° Northeast 157 181 20,000  Level Oakland Center
12:58PM 40.5333 -121.5528 21° North 152 175 20,000 -120 Level Oakland Center
12:59PM 40.5806 -121.5308 19° North 151 174 19,800 -240 Descending Oakland Center
01:00PM 40.6189 -121.5203 12° North 144 166 19,600 -60 Descending Oakland Center
01:02PM 40.6583 -121.5206 360° North 143 165 19,700  Climbing Oakland Center
01:03PM 40.6961 -121.5206 360° North 137 158 19,700  Level Oakland Center
01:04PM 40.7325 -121.5197 North 133 153 19,700  Level Oakland Center
01:05PM 40.7631 -121.5175 North 118 136 19,700  Level Oakland Center
01:06PM 40.7878 -121.5169 North 97 112 19,700  Level Oakland Center
01:07PM 40.8139 -121.5172 360° North 94 108 19,700  Level Oakland Center
01:08PM 40.8483 -121.5153 North 103 119 19,700  Level Oakland Center
01:09PM 40.8803 -121.5147 North 113 130 19,700  Level Oakland Center
01:10PM 40.9106 -121.5139 North 111 128 19,700  Level Oakland Center
01:11PM 40.9308 -121.4981 31° Northeast 119 137 19,700 -60 Level Oakland Center
01:12PM 40.8817 -121.5336 209° Southwest 236 272 19,600  Descending Oakland Center
01:13PM 40.8094 -121.5356 181° South 256 295 19,700  Climbing Oakland Center
01:14PM 40.7333 -121.5375 181° South 269 310 19,700 -60 Level Oakland Center
01:15PM 40.6758 -121.5453 186° South 258 297 19,600 -60 Descending Oakland Center
01:16PM 40.7019 -121.5622 334° Northwest 125 144 19,600  Level Oakland Center
01:17PM 40.7364 -121.5608 North 105 121 19,600  Level Oakland Center
01:18PM 40.7625 -121.5617 359° North 98 113 19,600  Level Oakland Center
01:19PM 40.7894 -121.5592 North 97 112 19,600  Level Oakland Center
01:20PM 40.8172 -121.5594 360° North 100 115 19,700  Climbing Oakland Center
01:21PM 40.8447 -121.5575 North 99 114 19,700 -60 Level Oakland Center
01:22PM 40.8744 -121.5567 North 105 121 19,600 -60 Descending Oakland Center
01:23PM 40.9078 -121.5583 358° North 117 135 19,600  Level Oakland Center
01:24PM 40.8833 -121.5181 129° Southeast 216 249 19,600 -120 Level Oakland Center
01:25PM 40.8083 -121.4922 165° South 264 304 19,400 -420 Descending Oakland Center
01:26PM 40.7331 -121.4808 173° South 292 336 18,800 -420 Descending Oakland Center
01:27PM 40.7303 -121.5183 264° West 176 203 18,600 -60 Descending Oakland Center
01:28PM 40.7594 -121.5169 North 105 121 18,700  Climbing Oakland Center
01:29PM 40.7853 -121.5175 359° North 95 109 18,700  Level Oakland Center
01:30PM 40.8114 -121.5172 360° North 93 107 18,700  Level Oakland Center
01:31PM 40.8375 -121.5150 North 93 107 18,700 -60 Level Oakland Center
01:32PM 40.8728 -121.5142 North 104 120 18,600 -60 Descending Oakland Center
01:33PM 40.9025 -121.5144 360° North 106 122 18,600  Level Oakland Center
01:34PM 40.9206 -121.4825 53° Northeast 108 124 18,700  Climbing Oakland Center
01:35PM 40.9050 -121.5314 247° West 209 241 18,600  Descending Oakland Center
01:36PM 40.8311 -121.5347 182° South 260 299 18,700  Climbing Oakland Center
01:37PM 40.7539 -121.5364 181° South 271 312 18,600 -60 Descending Oakland Center
01:38PM 40.6972 -121.5606 198° South 264 304 18,600  Level Oakland Center
01:39PM 40.7211 -121.5597 North 124 143 18,600  Level Oakland Center
01:40PM 40.7536 -121.5606 359° North 97 112 18,600  Level Oakland Center
01:41PM 40.7817 -121.5600 North 99 114 18,600  Level Oakland Center
01:43PM 40.8092 -121.5597 360° North 98 113 18,600  Level Oakland Center
01:44PM 40.8353 -121.5581 North 94 108 18,600  Level Oakland Center
01:45PM 40.8628 -121.5583 360° North 98 113 18,600  Level Oakland Center
01:46PM 40.8939 -121.5567 North 108 124 18,600  Level Oakland Center
01:47PM 40.9219 -121.5461 16° North 109 125 18,700 240 Climbing Oakland Center
01:48PM 40.8756 -121.5008 144° Southeast 202 232 19,100 480 Climbing Oakland Center
01:49PM 40.8022 -121.5008 180° South 246 283 19,700 480 Climbing Oakland Center
01:50PM 40.7208 -121.5047 182° South 251 289 20,100 360 Climbing Oakland Center
01:51PM 40.6875 -121.5681 235° Southwest 214 246 20,500 420 Climbing Oakland Center
01:52PM 40.7092 -121.5758 345° North 120 138 21,000 480 Climbing Oakland Center
01:53PM 40.7222 -121.5403 64° Northeast 106 122 21,500 420 Climbing Oakland Center
01:54PM 40.7372 -121.5078 59° Northeast 106 122 21,900 360 Climbing Oakland Center
01:55PM 40.7619 -121.5294 326° Northwest 112 129 22,300 360 Climbing Oakland Center
01:56PM 40.7808 -121.5400 337° Northwest 118 136 22,700 300 Climbing Oakland Center
01:57PM 40.7544 -121.4853 122° Southeast 167 192 23,000 240 Climbing Oakland Center
01:58PM 40.7072 -121.5364 219° Southwest 224 258 23,300 180 Climbing Oakland Center
01:59PM 40.7244 -121.5586 316° Northwest 145 167 23,400 60 Climbing Oakland Center
02:00PM 40.7286 -121.5142 83° East 125 144 23,500  Climbing Oakland Center
02:01PM 40.7528 -121.5175 354° North 126 145 23,400 -60 Descending Oakland Center
02:02PM 40.7775 -121.5475 317° Northwest 148 170 23,400  Level Oakland Center
02:03PM 40.7519 -121.4950 123° Southeast 169 194 23,500  Climbing Oakland Center
02:04PM 40.6964 -121.5197 199° South 240 276 23,400  Descending Oakland Center
02:05PM 40.7111 -121.5689 292° West 161 185 23,500  Climbing Oakland Center
02:06PM 40.7469 -121.5908 335° Northwest 122 140 23,500  Level Oakland Center
02:07PM 40.7667 -121.5636 46° Northeast 107 123 23,500  Level Oakland Center
02:08PM 40.7644 -121.5108 93° East 135 155 23,500 -60 Level Oakland Center
02:09PM 40.7250 -121.4875 156° South 216 249 23,400 -60 Descending Oakland Center
02:10PM 40.7150 -121.5500 258° West 201 231 23,400  Level Oakland Center
02:11PM 40.7267 -121.5178 64° Northeast 117 135 23,500  Climbing Oakland Center
02:12PM 40.7567 -121.5153 North 105 121 23,500  Level Oakland Center
02:13PM 40.7881 -121.5183 356° North 109 125 23,500  Level Oakland Center
02:14PM 40.8192 -121.5175 North 111 128 23,500  Level Oakland Center
02:15PM 40.8553 -121.5156 North 109 125 23,500  Level Oakland Center
02:16PM 40.8864 -121.5150 North 111 128 23,500  Level Oakland Center
02:17PM 40.9181 -121.5108 North 113 130 23,600  Climbing Oakland Center
02:18PM 40.9328 -121.4736 62° Northeast 112 129 23,500 -120 Descending Oakland Center
02:19PM 40.9436 -121.5269 285° West 205 236 23,400  Descending Oakland Center
02:20PM 40.8786 -121.5253 179° South 246 283 23,500  Climbing Oakland Center
02:21PM 40.8994 -121.5194 12° North 156 180 23,500  Level Oakland Center
02:22PM 40.9211 -121.4981 37° Northeast 118 136 23,600 -60 Climbing Oakland Center
02:23PM 40.9419 -121.4969 North 171 197 23,400 -120 Descending Oakland Center
02:24PM 40.8858 -121.5322 205° Southwest 249 287 23,400  Level Oakland Center
02:26PM 40.8108 -121.5353 182° South 265 305 23,500  Climbing Oakland Center
02:27PM 40.7353 -121.5378 181° South 270 311 23,400 -60 Descending Oakland Center
02:28PM 40.6692 -121.5536 190° South 268 308 23,400  Level Oakland Center
02:29PM 40.6819 -121.5731 311° West 153 176 23,400 60 Level Oakland Center
02:30PM 40.6783 -121.5272 96° East 133 153 23,600  Climbing Oakland Center
02:31PM 40.7058 -121.5194 12° North 102 117 23,400 -120 Descending Oakland Center
02:32PM 40.7433 -121.5172 North 111 128 23,400  Level Oakland Center
02:33PM 40.7731 -121.5175 360° North 108 124 23,400  Level Oakland Center
02:34PM 40.8039 -121.5161 North 110 127 23,400  Level Oakland Center
02:35PM 40.8322 -121.5167 359° North 105 121 23,400  Level Oakland Center
02:36PM 40.8617 -121.5164 360° North 105 121 23,400  Level Oakland Center
02:37PM 40.8928 -121.5144 North 109 125 23,400  Level Oakland Center
02:38PM 40.9189 -121.4942 30° Northeast 116 133 23,500  Climbing Oakland Center
02:39PM 40.9375 -121.4847 21° North 145 167 23,400 -60 Descending Oakland Center
02:40PM 40.8658 -121.5353 208° Southwest 259 298 23,400  Level Oakland Center
02:41PM 40.7894 -121.5361 180° South 271 312 23,400  Level Oakland Center
02:42PM 40.7144 -121.5328 178° South 271 312 23,400 -60 Level Oakland Center
02:43PM 40.6778 -121.5792 224° Southwest 250 288 23,300  Descending Oakland Center
02:44PM 40.7028 -121.5686 18° North 110 127 23,400  Climbing Oakland Center
02:45PM 40.7314 -121.5592 14° North 105 121 23,400  Level Oakland Center
02:46PM 40.7625 -121.5603 358° North 110 127 23,400  Level Oakland Center
02:47PM 40.7914 -121.5594 North 107 123 23,400  Level Oakland Center
02:48PM 40.8247 -121.5600 359° North 101 116 23,400  Level Oakland Center
02:49PM 40.8531 -121.5569 North 102 117 23,400  Level Oakland Center
02:50PM 40.8814 -121.5564 North 101 116 23,400  Level Oakland Center
02:51PM 40.9122 -121.5558 North 108 124 23,400 -240 Level Oakland Center
02:52PM 40.8803 -121.5189 139° Southeast 197 227 23,000 -480 Descending Oakland Center
02:53PM 40.8006 -121.5097 175° South 278 320 22,500 -300 Descending Oakland Center
02:54PM 40.7297 -121.4875 167° South 267 307 22,500  Level Oakland Center
02:55PM 40.7203 -121.5331 255° West 152 175 22,500  Level Oakland Center
02:56PM 40.7414 -121.5178 29° Northeast 96 110 22,500  Level Oakland Center
02:57PM 40.7694 -121.5164 North 100 115 22,500  Level Oakland Center
02:58PM 40.7986 -121.5169 359° North 103 119 22,500  Level Oakland Center
02:59PM 40.8269 -121.5169 360° North 103 119 22,500  Level Oakland Center
03:00PM 40.8572 -121.5161 North 107 123 22,500  Level Oakland Center
03:01PM 40.8881 -121.5153 North 109 125 22,500  Level Oakland Center
03:02PM 40.9147 -121.5006 23° Northeast 119 137 22,500 -60 Level Oakland Center
03:03PM 40.9319 -121.5156 327° Northwest 161 185 22,400  Descending Oakland Center
03:04PM 40.8656 -121.5344 192° South 250 288 22,500  Climbing Oakland Center
03:05PM 40.7942 -121.5353 181° South 255 293 22,500 -60 Level Oakland Center
03:07PM 40.7239 -121.5375 181° South 253 291 22,400 -60 Descending Oakland Center
03:08PM 40.7178 -121.5722 257° West 188 216 22,400  Level Oakland Center
03:09PM 40.7386 -121.5608 22° Northeast 108 124 22,400  Level Oakland Center
03:10PM 40.7672 -121.5611 360° North 101 116 22,400  Level Oakland Center
03:11PM 40.7972 -121.5592 North 105 121 22,400  Level Oakland Center
03:12PM 40.8319 -121.5581 North 105 121 22,400  Level Oakland Center
03:13PM 40.8614 -121.5581 360° North 106 122 22,400  Level Oakland Center
03:14PM 40.8919 -121.5567 North 109 125 22,400  Level Oakland Center
03:15PM 40.9133 -121.5419 27° Northeast 115 132 22,400 -240 Level Oakland Center
03:16PM 40.8492 -121.5089 159° South 230 265 22,000 -480 Descending Oakland Center
03:17PM 40.7753 -121.4833 165° South 260 299 21,500 -300 Descending Oakland Center
03:18PM 40.7158 -121.5125 200° South 267 307 21,400  Descending Oakland Center
03:19PM 40.7400 -121.5164 353° North 139 160 21,500  Climbing Oakland Center
03:20PM 40.7767 -121.5175 359° North 110 127 21,500  Level Oakland Center
03:21PM 40.8078 -121.5167 North 110 127 21,500  Level Oakland Center
03:22PM 40.8381 -121.5161 North 110 127 21,500  Level Oakland Center
03:23PM 40.8681 -121.5164 360° North 108 124 21,500  Level Oakland Center
03:24PM 40.8983 -121.5161 360° North 110 127 21,500  Level Oakland Center
03:25PM 40.9214 -121.4889 42° Northeast 117 135 21,500 -60 Level Oakland Center
03:26PM 40.9183 -121.5322 265° West 214 246 21,400  Descending Oakland Center
03:27PM 40.8450 -121.5347 181° South 257 296 21,500  Climbing Oakland Center
03:28PM 40.7578 -121.5361 181° South 260 299 21,500  Level Oakland Center
03:29PM 40.7028 -121.5644 201° Southwest 235 270 21,500  Level Oakland Center
03:30PM 40.7225 -121.5592 11° North 125 144 21,500  Level Oakland Center
03:31PM 40.7539 -121.5617 357° North 110 127 21,500  Level Oakland Center
03:32PM 40.7842 -121.5600 North 110 127 21,500  Level Oakland Center
03:33PM 40.8156 -121.5589 North 112 129 21,500  Level Oakland Center
03:34PM 40.8456 -121.5581 North 110 127 21,500  Level Oakland Center
03:35PM 40.8769 -121.5578 360° North 111 128 21,500 -60 Level Oakland Center
03:36PM 40.9139 -121.5561 North 112 129 21,400 -360 Descending Oakland Center
03:37PM 40.8717 -121.5125 142° Southeast 228 262 20,800 -480 Descending Oakland Center
03:38PM 40.8083 -121.4975 170° South 269 310 20,500 -180 Descending Oakland Center
03:39PM 40.7233 -121.5131 188° South 261 300 20,500  Level Oakland Center
03:40PM 40.7350 -121.5203 335° Northwest 154 177 20,500  Level Oakland Center
03:41PM 40.7642 -121.5158 North 109 125 20,500  Level Oakland Center
03:42PM 40.7942 -121.5178 357° North 107 123 20,500  Level Oakland Center
03:43PM 40.8247 -121.5167 North 109 125 20,500  Level Oakland Center
03:44PM 40.8550 -121.5161 North 109 125 20,500  Level Oakland Center
03:45PM 40.8914 -121.5139 North 108 124 20,500  Level Oakland Center
03:46PM 40.9169 -121.4994 23° Northeast 109 125 20,500  Level Oakland Center
03:48PM 40.9258 -121.5092 320° Northwest 164 189 20,500 -60 Level Oakland Center
03:49PM 40.8664 -121.5208 188° South 248 285 20,400  Descending Oakland Center
03:50PM 40.8753 -121.4886 70° East 132 152 20,500  Climbing Oakland Center
03:51PM 40.9053 -121.4983 346° North 112 129 20,500  Level Oakland Center
03:52PM 40.9331 -121.4919 10° North 108 124 20,500  Level Oakland Center
03:53PM 40.9294 -121.5194 260° West 187 215 20,500  Level Oakland Center
03:54PM 40.8439 -121.5342 187° South 252 290 20,500  Level Oakland Center
03:55PM 40.7711 -121.5347 180° South 258 297 20,500 -60 Level Oakland Center
03:56PM 40.7006 -121.5400 183° South 261 300 20,400  Descending Oakland Center
03:57PM 40.7147 -121.5636 308° West 154 177 20,500  Climbing Oakland Center
03:58PM 40.7450 -121.5606 North 114 131 20,500  Level Oakland Center
03:59PM 40.7756 -121.5594 North 110 127 20,500  Level Oakland Center
04:00PM 40.8075 -121.5606 358° North 113 130 20,500  Level Oakland Center
04:01PM 40.8369 -121.5581 North 109 125 20,500  Level Oakland Center
04:02PM 40.8725 -121.5569 North 107 123 20,500  Level Oakland Center
04:03PM 40.9036 -121.5564 North 111 128 20,500 -300 Level Oakland Center
04:04PM 40.9036 -121.5203 90° East 156 180 20,000 -480 Descending Oakland Center
04:05PM 40.8283 -121.4986 168° South 258 297 19,600 -240 Descending Oakland Center
04:06PM 40.7528 -121.4756 167° South 269 310 19,600 -60 Level Oakland Center
04:07PM 40.7267 -121.5214 233° Southwest 215 247 19,500 -60 Descending Oakland Center
04:08PM 40.7508 -121.5183 North 105 121 19,500  Level Oakland Center
04:09PM 40.7778 -121.5183 360° North 96 110 19,500  Level Oakland Center
04:10PM 40.8050 -121.5172 North 98 113 19,500  Level Oakland Center
04:11PM 40.8381 -121.5156 North 100 115 19,500  Level Oakland Center
04:12PM 40.8658 -121.5161 359° North 100 115 19,500  Level Oakland Center
04:13PM 40.8933 -121.5167 359° North 99 114 19,500  Level Oakland Center
04:14PM 40.9122 -121.4947 41° Northeast 107 123 19,500  Level Oakland Center
04:15PM 40.9286 -121.4950 359° North 120 138 19,500  Level Oakland Center
04:16PM 40.8764 -121.5331 209° Southwest 228 262 19,500  Level Oakland Center
04:17PM 40.8042 -121.5358 182° South 253 291 19,500  Level Oakland Center
04:18PM 40.7314 -121.5386 182° South 260 299 19,500  Level Oakland Center
04:19PM 40.7011 -121.5614 210° Southwest 183 211 19,500  Level Oakland Center
04:20PM 40.7269 -121.5606 North 102 117 19,500  Level Oakland Center
04:21PM 40.7528 -121.5603 360° North 94 108 19,500  Level Oakland Center
04:22PM 40.7808 -121.5592 North 99 114 19,500  Level Oakland Center
04:23PM 40.8097 -121.5603 358° North 102 117 19,500  Level Oakland Center
04:24PM 40.8356 -121.5583 North 97 112 19,500  Level Oakland Center
04:25PM 40.8606 -121.5553 North 92 106 19,500  Level Oakland Center
04:26PM 40.8894 -121.5564 358° North 98 113 19,500 -60 Level Oakland Center
04:27PM 40.9028 -121.5319 54° Northeast 148 170 19,400 -180 Descending Oakland Center
04:28PM 40.8336 -121.5144 169° South 245 282 19,200 -300 Descending Oakland Center
04:29PM 40.7772 -121.4847 158° South 256 295 18,800 -360 Descending Oakland Center
04:31PM 40.7125 -121.5150 200° South 254 292 18,500 -180 Descending Oakland Center
04:32PM 40.7369 -121.5186 354° North 116 133 18,500  Level Oakland Center
04:33PM 40.7581 -121.5167 North 84 97 18,500  Level Oakland Center
04:34PM 40.7814 -121.5164 North 82 94 18,500  Level Oakland Center
04:35PM 40.8058 -121.5178 358° North 86 99 18,500  Level Oakland Center
04:36PM 40.8342 -121.5167 North 86 99 18,500  Level Oakland Center
04:37PM 40.8589 -121.5147 North 89 102 18,500  Level Oakland Center
04:38PM 40.8847 -121.5164 357° North 91 105 18,500  Level Oakland Center
04:39PM 40.9094 -121.5122 North 90 104 18,500  Level Oakland Center
04:40PM 40.9156 -121.4706 79° East 108 124 18,600  Climbing Oakland Center
04:41PM 40.9289 -121.5083 295° West 133 153 18,500 -60 Descending Oakland Center
04:42PM 40.8656 -121.5333 197° South 251 289 18,500  Level Oakland Center
04:43PM 40.7928 -121.5353 181° South 262 302 18,500  Level Oakland Center
04:44PM 40.7214 -121.5369 181° South 258 297 18,500  Level Oakland Center
04:45PM 40.7217 -121.5608 271° West 109 125 18,500  Level Oakland Center
04:46PM 40.7464 -121.5611 360° North 90 104 18,500  Level Oakland Center
04:47PM 40.7700 -121.5603 North 85 98 18,500  Level Oakland Center
04:48PM 40.7944 -121.5589 North 87 100 18,500  Level Oakland Center
04:49PM 40.8192 -121.5583 North 88 101 18,500  Level Oakland Center
04:50PM 40.8425 -121.5589 359° North 86 99 18,500  Level Oakland Center
04:51PM 40.8667 -121.5572 North 87 100 18,500  Level Oakland Center
04:52PM 40.8983 -121.5561 North 93 107 18,500 -120 Level Oakland Center
04:53PM 40.9172 -121.5844 311° West 135 155 18,300 -540 Descending Oakland Center
04:54PM 40.8697 -121.6547 228° Southwest 259 298 17,400 -960 Descending Oakland Center
04:55PM 40.8211 -121.7214 226° Southwest 254 292 16,400 -1,080 Descending Oakland Center
04:56PM 40.7747 -121.7900 228° Southwest 251 289 15,200 -1,560 Descending Oakland Center
04:57PM 40.7219 -121.8514 221° Southwest 254 292 13,300 -1,800 Descending Oakland Center
04:58PM 40.6689 -121.9117 221° Southwest 253 291 11,600 -1,680 Descending Oakland Center